Home > Products > Valid Products > MTR

000
SAUS43 KDTX 270953 COR
MTRP58
METAR KP58 270951Z AUTO 03015G18KT M06/M12 A3002 RMK AO1 SLP183
T10611117





000
SAUS43 KDTX 270952
MTRP58
METAR KP58 270951Z AUTO 03015G18KT M06/M12 A3002 RMK AO1 SLP183
T10611117





000
SAUS43 KDTX 270853
MTRP58
METAR KP58 270851Z AUTO 04008KT M07/M12 A3002 RMK AO1 SLP183
T10671122 53007





000
SAUS43 KDTX 270753
MTRP58
METAR KP58 270751Z AUTO 06007KT M07/M13 A3002 RMK AO1 SLP182
T10721128





000
SAUS43 KDTX 270654
MTRP58
METAR KP58 270651Z AUTO 08009KT M07/M14 A3000 RMK AO1 SLP174
T10721144





000
SAUS43 KDTX 270552
MTRP58
METAR KP58 270551Z AUTO 09011KT M07/M13 A3000 RMK AO1 SLP176
T10721133 11061 21078 50001





000
SAUS43 KDTX 270454
MTRP58
METAR KP58 270451Z AUTO 10007KT M08/M13 A3001 RMK AO1 SLP179
T10781128 410611083





000
SAUS43 KDTX 270352
MTRP58
METAR KP58 270351Z AUTO 11012KT M08/M13 A3000 RMK AO1 SLP178
T10781133





000
SAUS43 KDTX 270352
MTRP58
METAR KP58 270351Z AUTO 11012KT M08/M13 A3000 RMK AO1 SLP178
T10781133





000
SAUS43 KDTX 270252
MTRP58
METAR KP58 270251Z AUTO 11011KT M07/M13 A3000 RMK AO1 SLP175
T10721133 52009





000
SAUS43 KDTX 270154
MTRP58
METAR KP58 270151Z AUTO 11013KT M07/M13 A2998 RMK AO1 SLP170
T10671133





000
SAUS43 KDTX 270054
MTRP58
METAR KP58 270051Z AUTO 08011KT M06/M13 A2998 RMK AO1 SLP170
T10611133





000
SAUS43 KDTX 262352
MTRP58
METAR KP58 262351Z AUTO 07011KT M06/M12 A2997 RMK AO1 SLP166
T10611122 11061 21072 53010





000
SAUS43 KDTX 262253
MTRP58
METAR KP58 262251Z AUTO 07012KT M07/M12 A2995 RMK AO1 SLP159
T10671122





000
SAUS43 KDTX 262153
MTRP58
METAR KP58 262151Z AUTO 04010KT M06/M13 A2995 RMK AO1 SLP159
T10611133





000
SAUS43 KDTX 262053
MTRP58
METAR KP58 262051Z AUTO 07010KT M06/M12 A2994 RMK AO1 SLP155
T10611122 55006





000
SAUS43 KDTX 261953
MTRP58
METAR KP58 261951Z AUTO 07011KT M06/M12 A2993 RMK AO1 SLP153
T10611122





000
SAUS43 KDTX 261853
MTRP58
METAR KP58 261851Z AUTO 09011KT M07/M10 A2993 RMK AO1 SLP152
T10671100





000
SAUS43 KDTX 261753
MTRP58
METAR KP58 261751Z AUTO 10009KT M07/M11 A2995 RMK AO1 SLP160
T10721106 11067 21083 58006





000
SAUS43 KDTX 261654
MTRP58
METAR KP58 261651Z AUTO 09008KT M07/M11 A2998 RMK AO1 SLP169
T10671106





000
SAUS43 KDTX 261553
MTRP58
METAR KP58 261551Z AUTO 09011KT M07/M11 A2999 RMK AO1 SLP171
T10721106





000
SAUS43 KDTX 261453
MTRP58
METAR KP58 261451Z AUTO 10009KT M07/M11 A2997 RMK AO1 SLP167
T10721111 50003





000
SAUS43 KDTX 261353
MTRP58
METAR KP58 261351Z AUTO 08007KT M07/M12 A2998 RMK AO1 SLP167
T10721122





000
SAUS43 KDTX 261254
MTRP58
METAR KP58 261251Z AUTO 09007KT M08/M13 A2997 RMK AO1 SLP166
T10831128 $





000
SAUS43 KDTX 261153
MTRP58
METAR KP58 261151Z AUTO 10010KT M08/M13 A2997 RMK AO1 SLP165
T10831128 11067 21083 58008 $





000
SAUS43 KDTX 261053
MTRP58
METAR KP58 261051Z AUTO 09007KT M08/M13 A2997 RMK AO1 SLP167
T10831128 $





000
SAUS43 KDTX 260952
MTRP58
METAR KP58 260951Z AUTO 09011KT M08/M13 A2998 RMK AO1 SLP170
T10831128 $





000
SAUS43 KDTX 260854
MTRP58
METAR KP58 260851Z AUTO 08010KT M08/M13 A2999 RMK AO1 SLP173
T10831128 56014 $





000
SAUS43 KDTX 260754
MTRP58
METAR KP58 260751Z AUTO 08013KT M08/M12 A3000 RMK AO1 SLP175
T10781117 $





000
SAUS43 KDTX 260654
MTRP58
METAR KP58 260651Z AUTO 08011KT M07/M11 A3000 RMK AO1 SLP176
T10671111 $





000
SAUS43 KDTX 260554
MTRP58
METAR KP58 260551Z AUTO 06011KT M07/M11 A3003 RMK AO1 SLP186
T10671111 11061 21072 50000 $





000
SAUS43 KDTX 260454
MTRP58
METAR KP58 260451Z AUTO 06013KT M07/M11 A3003 RMK AO1 SLP187
T10671106 410221072 $





000
SAUS43 KDTX 260354
MTRP58
METAR KP58 260351Z AUTO 06013KT M07/M12 A3003 RMK AO1 SLP187
T10671117 $





000
SAUS43 KDTX 260253
MTRP58
METAR KP58 260251Z AUTO 05014KT M07/M11 A3003 RMK AO1 SLP185
T10671111 58002 $





000
SAUS43 KDTX 260152
MTRP58
METAR KP58 260151Z AUTO 05014G20KT M07/M11 A3004 RMK AO1 SLP190
T10671106 $





000
SAUS43 KDTX 260152
MTRP58
METAR KP58 260151Z AUTO 05014G20KT M07/M11 A3004 RMK AO1 SLP190
T10671106 $





000
SAUS43 KDTX 260054
MTRP58
METAR KP58 260051Z AUTO 04014KT M07/M11 A3005 RMK AO1 SLP191
T10671111 $





000
SAUS43 KDTX 252353
MTRP58
METAR KP58 252351Z AUTO 05010KT M07/M12 A3003 RMK AO1 SLP187
T10721117 11061 21072 $





000
SAUS43 KDTX 252253
MTRP58
METAR KP58 252251Z AUTO 04011KT M07/M12 A3001 RMK AO1 SLP180
T10671117 $





000
SAUS43 KDTX 252153
MTRP58
METAR KP58 252151Z AUTO 03015KT M07/M12 A2999 RMK AO1 SLP173
T10721117





000
SAUS43 KDTX 252052
MTRP58
METAR KP58 252051Z AUTO 02011G19KT M07/M12 A3000 RMK AO1 SLP173
T10671122 51007





000
SAUS43 KDTX 251953
MTRP58
METAR KP58 251951Z AUTO 03011KT M07/M13 A2999 RMK AO1 SLP171
T10671128





000
SAUS43 KDTX 251854
MTRP58
METAR KP58 251851Z AUTO 05011KT M07/M12 A2998 RMK AO1 SLP167
T10671117





000
SAUS43 KDTX 251753
MTRP58
METAR KP58 251751Z AUTO 07012KT M07/M13 A2997 RMK AO1 SLP164
T10671128 11061 21072 51013





000
SAUS43 KDTX 251652
MTRP58
METAR KP58 251651Z AUTO 07014KT M07/M12 A2996 RMK AO1 SLP161
T10671117





000
SAUS43 KDTX 251552
MTRP58
METAR KP58 251551Z AUTO 06014KT M07/M12 A2995 RMK AO1 SLP157
T10671122





000
SAUS43 KDTX 251452
MTRP58
METAR KP58 251451Z AUTO 03016KT M07/M12 A2993 RMK AO1 SLP149
T10671117 51024





000
SAUS43 KDTX 251352
MTRP58
METAR KP58 251351Z AUTO 02017KT M07/M11 A2993 RMK AO1 SLP149
T10671111





000
SAUS43 KDTX 251254
MTRP58
METAR KP58 251251Z AUTO 01013G23KT M07/M11 A2990 RMK AO1 SLP139
T10671111





000
SAUS43 KDTX 251154 COR
MTRP58
METAR KP58 251151Z AUTO 01016G23KT M06/M10 A2986 RMK AO1 SLP124
T10611100 11028 21061 53027





000
SAUS43 KDTX 251153 COR
MTRP58
METAR KP58 251151Z AUTO 01016G23KT M06/M10 A2986 RMK AO1 SLP124
T10611100 11028 21061 53027





000
SAUS43 KDTX 251054
MTRP58
METAR KP58 251051Z AUTO 35007G18KT M06/M10 A2982 RMK AO1 SLP110
T10561100





000
SAUS43 KDTX 250954
MTRP58
METAR KP58 250951Z AUTO 01016G20KT M05/M10 A2980 RMK AO1 SLP103
T10501100





000
SAUS43 KDTX 250954
MTRP58
METAR KP58 250951Z AUTO 01016G20KT M05/M10 A2980 RMK AO1 SLP103
T10501100





000
SAUS43 KDTX 250853
MTRP58
METAR KP58 250851Z AUTO 01014G21KT M05/M09 A2978 RMK AO1 SLP095
T10501094 51033





000
SAUS43 KDTX 250754
MTRP58
METAR KP58 250751Z AUTO 36009KT M04/M09 A2976 RMK AO1 SLP089
T10441094





000
SAUS43 KDTX 250653
MTRP58
METAR KP58 250651Z AUTO 35007KT M04/M09 A2972 RMK AO1 SLP076
T10391094





000
SAUS43 KDTX 250552
MTRP58
METAR KP58 250551Z AUTO 36010G16KT M03/M07 A2968 RMK AO1 SLP062
T10281072 10017 21028 51024





000
SAUS43 KDTX 250452
MTRP58
METAR KP58 250451Z AUTO 33007KT M02/M07 A2967 RMK AO1 SLP058
T10221072 400281028





000
SAUS43 KDTX 250353
MTRP58
METAR KP58 250351Z AUTO 34011G16KT M02/M06 A2965 RMK AO1 SLP050
T10171061





000
SAUS43 KDTX 250252
MTRP58
METAR KP58 250251Z AUTO 34008KT M01/M06 A2961 RMK AO1 SLP037
T10061056 51025





000
SAUS43 KDTX 250154
MTRP58
METAR KP58 250151Z AUTO 33008KT 00/M04 A2960 RMK AO1 SLP034
T00001044





000
SAUS43 KDTX 250154
MTRP58
METAR KP58 250151Z AUTO 33008KT 00/M04 A2960 RMK AO1 SLP034
T00001044





000
SAUS43 KDTX 250054
MTRP58
METAR KP58 250051Z AUTO 33004KT 01/M01 A2957 RMK AO1 SLP024
T00061011





000
SAUS43 KDTX 242353
MTRP58
METAR KP58 242351Z AUTO 28005KT 02/M01 A2953 RMK AO1 SLP011
T00171011 10028 20006 53020





000
SAUS43 KDTX 242253
MTRP58
METAR KP58 242251Z AUTO 28008G17KT 02/M01 A2950 RMK AO1 SLP000
T00221011





000
SAUS43 KDTX 242152
MTRP58
METAR KP58 242151Z AUTO 27006KT 02/M01 A2948 RMK AO1 SLP992
T00221011





000
SAUS43 KDTX 242052
MTRP58
METAR KP58 242051Z AUTO VRB05KT 02/M02 A2947 RMK AO1 SLP990
T00221017 55004





000
SAUS43 KDTX 241953
MTRP58
METAR KP58 241951Z AUTO VRB06KT 02/M02 A2946 RMK AO1 SLP987
T00171017





000
SAUS43 KDTX 241853
MTRP58
METAR KP58 241851Z AUTO 26007G16KT 230V300 01/M02 A2947 RMK AO1
SLP991 T00111022





000
SAUS43 KDTX 241757 COR
MTRP58
METAR KP58 241751Z AUTO 24008KT 01/M02 A2949 RMK AO1 SLP995
T00061022 10006 21017 58021





000
SAUS43 KDTX 241754 COR
MTRP58
METAR KP58 241751Z AUTO 24008KT 01/M02 A2949 RMK AO1 SLP995
T00061022 10006 21017 58021





000
SAUS43 KDTX 241652
MTRP58
METAR KP58 241651Z AUTO 25009KT 00/M03 A2952 RMK AO1 SLP008
T00001028





000
SAUS43 KDTX 241554
MTRP58
METAR KP58 241551Z AUTO VRB06KT M01/M03 A2954 RMK AO1 SLP014
T10061028





000
SAUS43 KDTX 241453
MTRP58
METAR KP58 241451Z AUTO 24007KT M01/M03 A2955 RMK AO1 SLPNO
T10111033 56011





000
SAUS43 KDTX 241357 COR
MTRP58
METAR KP58 241351Z AUTO 23007KT M01/M03 A2955 RMK AO1 SLP019
T10111033





000
SAUS43 KDTX 241354 COR
MTRP58
METAR KP58 241351Z AUTO 23007KT M01/M03 A2955 RMK AO1 SLP019
T10111033





000
SAUS43 KDTX 241254
MTRP58
METAR KP58 241251Z AUTO VRB05KT M02/M04 A2957 RMK AO1 SLP024
T10171039





000
SAUS43 KDTX 241154
MTRP58
METAR KP58 241151Z AUTO 22006KT M02/M04 A2958 RMK AO1 SLP029 60004
70005 T10171039 11017 21028 56015





000
SAUS43 KDTX 241054
MTRP58
METAR KP58 241051Z AUTO 23005KT M02/M04 A2959 RMK AO1 SLP031
T10221044





    US Dept of Commerce
    National Oceanic and Atmospheric Administration
    National Weather Service
    1325 East West Highway
    Silver Spring, MD 20910
    Page Author: NWS Internet Services Team
Disclaimer
Information Quality
Credits
Glossary
Privacy Policy
Freedom of Information Act (FOIA)
About Us
Career Opportunities